sensor_id;sensor_type;location;lat;lon;timestamp;P1;durP1;ratioP1;P2;durP2;ratioP2
39898;SDS011;25571;47.876;10.642;2022-12-16T00:00:23;12.93;;;8.95;;
39898;SDS011;25571;47.876;10.642;2022-12-16T00:02:50;15.43;;;9.90;;
39898;SDS011;25571;47.876;10.642;2022-12-16T00:05:16;13.63;;;9.27;;
39898;SDS011;25571;47.876;10.642;2022-12-16T00:07:45;15.07;;;10.05;;
39898;SDS011;25571;47.876;10.642;2022-12-16T00:10:11;17.52;;;10.75;;
39898;SDS011;25571;47.876;10.642;2022-12-16T00:12:37;16.35;;;11.25;;
39898;SDS011;25571;47.876;10.642;2022-12-16T00:15:03;16.52;;;10.93;;
39898;SDS011;25571;47.876;10.642;2022-12-16T00:17:28;15.15;;;10.20;;
39898;SDS011;25571;47.876;10.642;2022-12-16T00:19:54;14.95;;;9.80;;
39898;SDS011;25571;47.876;10.642;2022-12-16T00:22:20;11.57;;;8.10;;
39898;SDS011;25571;47.876;10.642;2022-12-16T00:24:46;12.57;;;9.40;;
39898;SDS011;25571;47.876;10.642;2022-12-16T00:27:12;15.82;;;10.32;;
39898;SDS011;25571;47.876;10.642;2022-12-16T00:29:37;15.45;;;10.50;;
39898;SDS011;25571;47.876;10.642;2022-12-16T00:32:03;12.88;;;8.75;;
39898;SDS011;25571;47.876;10.642;2022-12-16T00:34:30;14.05;;;9.77;;
39898;SDS011;25571;47.876;10.642;2022-12-16T00:36:55;14.68;;;9.52;;
39898;SDS011;25571;47.876;10.642;2022-12-16T00:39:21;17.00;;;10.50;;
39898;SDS011;25571;47.876;10.642;2022-12-16T00:41:47;15.38;;;9.60;;
39898;SDS011;25571;47.876;10.642;2022-12-16T00:44:12;15.35;;;9.75;;
39898;SDS011;25571;47.876;10.642;2022-12-16T00:46:38;13.05;;;9.40;;
39898;SDS011;25571;47.876;10.642;2022-12-16T00:49:04;14.48;;;9.82;;
39898;SDS011;25571;47.876;10.642;2022-12-16T00:51:30;12.18;;;8.48;;
39898;SDS011;25571;47.876;10.642;2022-12-16T00:53:55;11.32;;;8.00;;
39898;SDS011;25571;47.876;10.642;2022-12-16T00:56:21;13.07;;;8.70;;
39898;SDS011;25571;47.876;10.642;2022-12-16T00:58:47;13.77;;;9.23;;
39898;SDS011;25571;47.876;10.642;2022-12-16T01:01:13;14.20;;;9.32;;
39898;SDS011;25571;47.876;10.642;2022-12-16T01:03:38;12.10;;;8.75;;
39898;SDS011;25571;47.876;10.642;2022-12-16T01:06:11;13.48;;;9.30;;
39898;SDS011;25571;47.876;10.642;2022-12-16T01:08:39;16.10;;;10.10;;
39898;SDS011;25571;47.876;10.642;2022-12-16T01:11:12;14.18;;;10.02;;
39898;SDS011;25571;47.876;10.642;2022-12-16T01:13:39;14.30;;;9.50;;
39898;SDS011;25571;47.876;10.642;2022-12-16T01:16:05;11.57;;;8.80;;
39898;SDS011;25571;47.876;10.642;2022-12-16T01:18:31;13.05;;;8.90;;
39898;SDS011;25571;47.876;10.642;2022-12-16T01:21:06;14.73;;;9.77;;
39898;SDS011;25571;47.876;10.642;2022-12-16T01:23:32;14.15;;;9.35;;
39898;SDS011;25571;47.876;10.642;2022-12-16T01:25:59;15.68;;;9.98;;
39898;SDS011;25571;47.876;10.642;2022-12-16T01:28:26;12.80;;;9.15;;
39898;SDS011;25571;47.876;10.642;2022-12-16T01:30:56;12.23;;;8.60;;
39898;SDS011;25571;47.876;10.642;2022-12-16T01:33:25;13.75;;;8.75;;
39898;SDS011;25571;47.876;10.642;2022-12-16T01:35:57;11.70;;;8.80;;
39898;SDS011;25571;47.876;10.642;2022-12-16T01:38:23;12.55;;;9.10;;
39898;SDS011;25571;47.876;10.642;2022-12-16T01:40:49;13.00;;;9.20;;
39898;SDS011;25571;47.876;10.642;2022-12-16T01:43:15;13.73;;;8.80;;
39898;SDS011;25571;47.876;10.642;2022-12-16T01:45:42;11.85;;;8.77;;
39898;SDS011;25571;47.876;10.642;2022-12-16T01:50:56;12.50;;;9.10;;
39898;SDS011;25571;47.876;10.642;2022-12-16T01:53:29;11.93;;;8.27;;
39898;SDS011;25571;47.876;10.642;2022-12-16T01:55:56;13.75;;;9.07;;
39898;SDS011;25571;47.876;10.642;2022-12-16T01:58:25;12.32;;;8.63;;
39898;SDS011;25571;47.876;10.642;2022-12-16T02:00:53;12.38;;;7.60;;
39898;SDS011;25571;47.876;10.642;2022-12-16T02:03:19;12.23;;;8.80;;
39898;SDS011;25571;47.876;10.642;2022-12-16T02:05:45;11.50;;;7.38;;
39898;SDS011;25571;47.876;10.642;2022-12-16T02:08:12;11.65;;;7.57;;
39898;SDS011;25571;47.876;10.642;2022-12-16T02:13:12;12.02;;;7.95;;
39898;SDS011;25571;47.876;10.642;2022-12-16T02:15:59;12.75;;;8.50;;
39898;SDS011;25571;47.876;10.642;2022-12-16T02:27:50;9.82;;;7.03;;
39898;SDS011;25571;47.876;10.642;2022-12-16T02:33:17;9.35;;;7.10;;
39898;SDS011;25571;47.876;10.642;2022-12-16T02:44:33;12.25;;;7.28;;
39898;SDS011;25571;47.876;10.642;2022-12-16T02:47:08;8.85;;;6.90;;
39898;SDS011;25571;47.876;10.642;2022-12-16T02:52:07;8.18;;;6.07;;
39898;SDS011;25571;47.876;10.642;2022-12-16T02:54:33;9.27;;;6.40;;
39898;SDS011;25571;47.876;10.642;2022-12-16T03:02:17;8.43;;;6.38;;
39898;SDS011;25571;47.876;10.642;2022-12-16T03:04:56;7.95;;;5.70;;
39898;SDS011;25571;47.876;10.642;2022-12-16T03:07:35;8.45;;;5.93;;
39898;SDS011;25571;47.876;10.642;2022-12-16T03:10:03;9.40;;;6.05;;
39898;SDS011;25571;47.876;10.642;2022-12-16T03:12:32;7.05;;;5.65;;
39898;SDS011;25571;47.876;10.642;2022-12-16T03:14:59;7.20;;;5.38;;
39898;SDS011;25571;47.876;10.642;2022-12-16T03:17:26;7.60;;;5.03;;
39898;SDS011;25571;47.876;10.642;2022-12-16T03:19:56;5.80;;;4.70;;
39898;SDS011;25571;47.876;10.642;2022-12-16T03:22:33;4.65;;;4.15;;
39898;SDS011;25571;47.876;10.642;2022-12-16T03:25:03;4.88;;;4.30;;
39898;SDS011;25571;47.876;10.642;2022-12-16T03:30:16;4.57;;;3.72;;
39898;SDS011;25571;47.876;10.642;2022-12-16T03:40:15;4.97;;;3.60;;
39898;SDS011;25571;47.876;10.642;2022-12-16T03:42:42;5.80;;;4.30;;
39898;SDS011;25571;47.876;10.642;2022-12-16T03:45:10;7.32;;;5.65;;
39898;SDS011;25571;47.876;10.642;2022-12-16T03:47:47;7.20;;;5.43;;
39898;SDS011;25571;47.876;10.642;2022-12-16T03:50:14;6.10;;;5.40;;
39898;SDS011;25571;47.876;10.642;2022-12-16T03:52:40;7.45;;;5.80;;
39898;SDS011;25571;47.876;10.642;2022-12-16T03:55:06;6.78;;;5.15;;
39898;SDS011;25571;47.876;10.642;2022-12-16T03:57:32;7.47;;;5.97;;
39898;SDS011;25571;47.876;10.642;2022-12-16T03:59:57;7.05;;;5.82;;
39898;SDS011;25571;47.876;10.642;2022-12-16T04:02:23;6.55;;;5.28;;
39898;SDS011;25571;47.876;10.642;2022-12-16T04:04:48;8.40;;;6.57;;
39898;SDS011;25571;47.876;10.642;2022-12-16T04:07:14;9.40;;;6.55;;
39898;SDS011;25571;47.876;10.642;2022-12-16T04:09:46;6.35;;;5.68;;
39898;SDS011;25571;47.876;10.642;2022-12-16T04:12:12;7.93;;;6.60;;
39898;SDS011;25571;47.876;10.642;2022-12-16T04:14:57;9.15;;;6.70;;
39898;SDS011;25571;47.876;10.642;2022-12-16T04:17:41;8.05;;;6.50;;
39898;SDS011;25571;47.876;10.642;2022-12-16T04:20:34;9.20;;;7.18;;
39898;SDS011;25571;47.876;10.642;2022-12-16T04:23:20;8.20;;;6.82;;
39898;SDS011;25571;47.876;10.642;2022-12-16T04:26:05;7.97;;;5.97;;
39898;SDS011;25571;47.876;10.642;2022-12-16T04:28:31;9.05;;;6.78;;
39898;SDS011;25571;47.876;10.642;2022-12-16T04:30:57;8.27;;;6.70;;
39898;SDS011;25571;47.876;10.642;2022-12-16T04:33:22;7.70;;;5.88;;
39898;SDS011;25571;47.876;10.642;2022-12-16T04:36:07;8.15;;;6.70;;
39898;SDS011;25571;47.876;10.642;2022-12-16T04:38:51;9.20;;;6.70;;
39898;SDS011;25571;47.876;10.642;2022-12-16T04:41:36;8.80;;;6.50;;
39898;SDS011;25571;47.876;10.642;2022-12-16T04:44:20;7.80;;;6.25;;
39898;SDS011;25571;47.876;10.642;2022-12-16T04:47:04;7.38;;;6.25;;
39898;SDS011;25571;47.876;10.642;2022-12-16T04:49:48;8.45;;;7.40;;
39898;SDS011;25571;47.876;10.642;2022-12-16T04:52:33;8.70;;;7.07;;
39898;SDS011;25571;47.876;10.642;2022-12-16T04:55:17;8.38;;;6.43;;
39898;SDS011;25571;47.876;10.642;2022-12-16T04:58:01;9.68;;;6.80;;
39898;SDS011;25571;47.876;10.642;2022-12-16T05:00:46;8.32;;;6.60;;
39898;SDS011;25571;47.876;10.642;2022-12-16T05:03:32;6.50;;;5.78;;
39898;SDS011;25571;47.876;10.642;2022-12-16T05:06:17;7.53;;;5.95;;
39898;SDS011;25571;47.876;10.642;2022-12-16T05:09:02;7.65;;;5.80;;
39898;SDS011;25571;47.876;10.642;2022-12-16T05:11:47;7.38;;;6.07;;
39898;SDS011;25571;47.876;10.642;2022-12-16T05:14:32;6.80;;;5.97;;
39898;SDS011;25571;47.876;10.642;2022-12-16T05:17:17;7.10;;;6.07;;
39898;SDS011;25571;47.876;10.642;2022-12-16T05:20:02;7.28;;;6.38;;
39898;SDS011;25571;47.876;10.642;2022-12-16T05:22:47;7.32;;;6.38;;
39898;SDS011;25571;47.876;10.642;2022-12-16T05:25:31;8.07;;;6.65;;
39898;SDS011;25571;47.876;10.642;2022-12-16T05:28:15;9.73;;;7.60;;
39898;SDS011;25571;47.876;10.642;2022-12-16T05:30:59;9.38;;;7.00;;
39898;SDS011;25571;47.876;10.642;2022-12-16T05:33:44;10.07;;;7.95;;
39898;SDS011;25571;47.876;10.642;2022-12-16T05:36:28;8.93;;;7.50;;
39898;SDS011;25571;47.876;10.642;2022-12-16T05:39:12;9.55;;;7.72;;
39898;SDS011;25571;47.876;10.642;2022-12-16T05:41:56;10.68;;;8.02;;
39898;SDS011;25571;47.876;10.642;2022-12-16T05:44:41;10.55;;;7.90;;
39898;SDS011;25571;47.876;10.642;2022-12-16T05:47:25;11.77;;;7.97;;
39898;SDS011;25571;47.876;10.642;2022-12-16T05:50:10;10.50;;;7.80;;
39898;SDS011;25571;47.876;10.642;2022-12-16T05:52:54;10.60;;;8.45;;
39898;SDS011;25571;47.876;10.642;2022-12-16T05:55:39;12.27;;;9.38;;
39898;SDS011;25571;47.876;10.642;2022-12-16T05:58:25;13.43;;;9.82;;
39898;SDS011;25571;47.876;10.642;2022-12-16T06:01:10;13.55;;;9.60;;
39898;SDS011;25571;47.876;10.642;2022-12-16T06:03:55;13.13;;;9.77;;
39898;SDS011;25571;47.876;10.642;2022-12-16T06:06:40;15.15;;;10.75;;
39898;SDS011;25571;47.876;10.642;2022-12-16T06:09:24;15.50;;;11.18;;
39898;SDS011;25571;47.876;10.642;2022-12-16T06:12:08;15.95;;;11.73;;
39898;SDS011;25571;47.876;10.642;2022-12-16T06:14:52;17.48;;;12.52;;
39898;SDS011;25571;47.876;10.642;2022-12-16T06:17:40;20.65;;;13.57;;
39898;SDS011;25571;47.876;10.642;2022-12-16T06:20:25;19.15;;;14.27;;
39898;SDS011;25571;47.876;10.642;2022-12-16T06:23:09;28.65;;;22.15;;
39898;SDS011;25571;47.876;10.642;2022-12-16T06:25:53;33.13;;;27.15;;
39898;SDS011;25571;47.876;10.642;2022-12-16T06:28:38;24.92;;;22.23;;
39898;SDS011;25571;47.876;10.642;2022-12-16T06:31:22;27.65;;;20.88;;
39898;SDS011;25571;47.876;10.642;2022-12-16T06:34:07;25.02;;;20.45;;
39898;SDS011;25571;47.876;10.642;2022-12-16T06:36:51;21.45;;;16.42;;
39898;SDS011;25571;47.876;10.642;2022-12-16T06:39:35;22.80;;;17.90;;
39898;SDS011;25571;47.876;10.642;2022-12-16T06:42:19;23.88;;;19.38;;
39898;SDS011;25571;47.876;10.642;2022-12-16T06:45:04;20.67;;;16.92;;
39898;SDS011;25571;47.876;10.642;2022-12-16T06:47:48;19.75;;;14.32;;
39898;SDS011;25571;47.876;10.642;2022-12-16T06:50:33;19.98;;;14.45;;
39898;SDS011;25571;47.876;10.642;2022-12-16T06:53:17;19.58;;;15.05;;
39898;SDS011;25571;47.876;10.642;2022-12-16T06:56:01;23.10;;;16.13;;
39898;SDS011;25571;47.876;10.642;2022-12-16T06:58:45;24.30;;;20.25;;
39898;SDS011;25571;47.876;10.642;2022-12-16T07:01:29;24.45;;;20.25;;
39898;SDS011;25571;47.876;10.642;2022-12-16T07:04:14;24.25;;;19.30;;
39898;SDS011;25571;47.876;10.642;2022-12-16T07:06:58;21.13;;;17.33;;
39898;SDS011;25571;47.876;10.642;2022-12-16T07:09:42;19.15;;;14.98;;
39898;SDS011;25571;47.876;10.642;2022-12-16T07:12:27;18.35;;;14.00;;
39898;SDS011;25571;47.876;10.642;2022-12-16T07:15:11;23.25;;;18.98;;
39898;SDS011;25571;47.876;10.642;2022-12-16T07:17:55;28.45;;;25.70;;
39898;SDS011;25571;47.876;10.642;2022-12-16T07:20:39;20.45;;;18.00;;
39898;SDS011;25571;47.876;10.642;2022-12-16T07:23:23;22.85;;;16.23;;
39898;SDS011;25571;47.876;10.642;2022-12-16T07:26:07;20.85;;;16.75;;
39898;SDS011;25571;47.876;10.642;2022-12-16T07:28:52;18.38;;;12.95;;
39898;SDS011;25571;47.876;10.642;2022-12-16T07:31:36;20.90;;;15.68;;
39898;SDS011;25571;47.876;10.642;2022-12-16T07:34:20;20.85;;;14.70;;
39898;SDS011;25571;47.876;10.642;2022-12-16T07:37:04;21.63;;;15.05;;
39898;SDS011;25571;47.876;10.642;2022-12-16T07:39:48;22.27;;;14.95;;
39898;SDS011;25571;47.876;10.642;2022-12-16T07:42:33;26.52;;;16.83;;
39898;SDS011;25571;47.876;10.642;2022-12-16T07:45:27;23.40;;;16.73;;
39898;SDS011;25571;47.876;10.642;2022-12-16T07:48:12;24.42;;;16.40;;
39898;SDS011;25571;47.876;10.642;2022-12-16T07:50:56;22.55;;;14.85;;
39898;SDS011;25571;47.876;10.642;2022-12-16T07:53:40;22.10;;;15.18;;
39898;SDS011;25571;47.876;10.642;2022-12-16T07:56:24;20.88;;;15.05;;
39898;SDS011;25571;47.876;10.642;2022-12-16T07:59:08;18.33;;;14.18;;
39898;SDS011;25571;47.876;10.642;2022-12-16T08:01:53;21.20;;;14.98;;
39898;SDS011;25571;47.876;10.642;2022-12-16T08:04:37;20.75;;;14.65;;
39898;SDS011;25571;47.876;10.642;2022-12-16T08:07:21;20.33;;;15.20;;
39898;SDS011;25571;47.876;10.642;2022-12-16T08:10:06;18.08;;;13.75;;
39898;SDS011;25571;47.876;10.642;2022-12-16T08:12:51;20.30;;;14.27;;
39898;SDS011;25571;47.876;10.642;2022-12-16T08:15:40;20.25;;;14.50;;
39898;SDS011;25571;47.876;10.642;2022-12-16T08:18:25;24.85;;;17.45;;
39898;SDS011;25571;47.876;10.642;2022-12-16T08:21:09;23.52;;;16.10;;
39898;SDS011;25571;47.876;10.642;2022-12-16T08:23:53;25.92;;;16.55;;
39898;SDS011;25571;47.876;10.642;2022-12-16T08:26:37;22.33;;;15.82;;
39898;SDS011;25571;47.876;10.642;2022-12-16T08:29:21;23.45;;;16.55;;
39898;SDS011;25571;47.876;10.642;2022-12-16T08:32:06;22.13;;;14.70;;
39898;SDS011;25571;47.876;10.642;2022-12-16T08:34:50;20.60;;;14.55;;
39898;SDS011;25571;47.876;10.642;2022-12-16T08:37:34;23.40;;;16.35;;
39898;SDS011;25571;47.876;10.642;2022-12-16T08:40:18;24.10;;;17.05;;
39898;SDS011;25571;47.876;10.642;2022-12-16T08:43:02;21.10;;;15.35;;
39898;SDS011;25571;47.876;10.642;2022-12-16T08:45:46;22.42;;;15.40;;
39898;SDS011;25571;47.876;10.642;2022-12-16T08:48:31;21.75;;;14.85;;
39898;SDS011;25571;47.876;10.642;2022-12-16T08:51:15;19.77;;;14.38;;
39898;SDS011;25571;47.876;10.642;2022-12-16T08:54:16;20.27;;;15.13;;
39898;SDS011;25571;47.876;10.642;2022-12-16T08:57:00;27.55;;;18.58;;
39898;SDS011;25571;47.876;10.642;2022-12-16T08:59:44;29.65;;;18.88;;
39898;SDS011;25571;47.876;10.642;2022-12-16T09:02:28;32.90;;;21.13;;
39898;SDS011;25571;47.876;10.642;2022-12-16T09:05:12;33.95;;;21.30;;
39898;SDS011;25571;47.876;10.642;2022-12-16T09:07:59;29.88;;;19.92;;
39898;SDS011;25571;47.876;10.642;2022-12-16T09:10:45;30.00;;;19.27;;
39898;SDS011;25571;47.876;10.642;2022-12-16T09:13:29;27.60;;;19.67;;
39898;SDS011;25571;47.876;10.642;2022-12-16T09:16:13;69.25;;;46.40;;
39898;SDS011;25571;47.876;10.642;2022-12-16T09:18:57;40.40;;;28.90;;
39898;SDS011;25571;47.876;10.642;2022-12-16T09:21:42;33.03;;;25.17;;
39898;SDS011;25571;47.876;10.642;2022-12-16T09:24:26;28.08;;;20.48;;
39898;SDS011;25571;47.876;10.642;2022-12-16T09:27:10;29.98;;;21.90;;
39898;SDS011;25571;47.876;10.642;2022-12-16T09:29:55;28.55;;;20.20;;
39898;SDS011;25571;47.876;10.642;2022-12-16T09:32:42;32.20;;;22.80;;
39898;SDS011;25571;47.876;10.642;2022-12-16T09:35:44;31.80;;;22.17;;
39898;SDS011;25571;47.876;10.642;2022-12-16T09:38:29;32.10;;;23.00;;
39898;SDS011;25571;47.876;10.642;2022-12-16T09:41:25;34.55;;;23.17;;
39898;SDS011;25571;47.876;10.642;2022-12-16T09:44:15;33.65;;;24.23;;
39898;SDS011;25571;47.876;10.642;2022-12-16T09:50:17;33.92;;;23.13;;
39898;SDS011;25571;47.876;10.642;2022-12-16T09:53:04;34.35;;;23.40;;
39898;SDS011;25571;47.876;10.642;2022-12-16T09:55:53;33.15;;;23.70;;
39898;SDS011;25571;47.876;10.642;2022-12-16T09:58:40;36.45;;;23.60;;
39898;SDS011;25571;47.876;10.642;2022-12-16T10:01:29;39.45;;;26.55;;
39898;SDS011;25571;47.876;10.642;2022-12-16T10:04:16;38.47;;;26.87;;
39898;SDS011;25571;47.876;10.642;2022-12-16T10:07:00;39.53;;;26.88;;
39898;SDS011;25571;47.876;10.642;2022-12-16T10:10:15;40.88;;;25.25;;
39898;SDS011;25571;47.876;10.642;2022-12-16T10:16:43;39.10;;;24.83;;
39898;SDS011;25571;47.876;10.642;2022-12-16T10:22:47;36.20;;;24.23;;
39898;SDS011;25571;47.876;10.642;2022-12-16T10:25:53;39.42;;;23.45;;
39898;SDS011;25571;47.876;10.642;2022-12-16T10:29:05;33.92;;;23.48;;
39898;SDS011;25571;47.876;10.642;2022-12-16T10:32:13;33.22;;;21.60;;
39898;SDS011;25571;47.876;10.642;2022-12-16T10:34:58;41.03;;;25.00;;
39898;SDS011;25571;47.876;10.642;2022-12-16T10:37:44;39.85;;;25.65;;
39898;SDS011;25571;47.876;10.642;2022-12-16T10:40:29;38.22;;;23.50;;
39898;SDS011;25571;47.876;10.642;2022-12-16T10:43:38;38.30;;;24.90;;
39898;SDS011;25571;47.876;10.642;2022-12-16T10:46:24;54.15;;;31.75;;
39898;SDS011;25571;47.876;10.642;2022-12-16T10:49:12;53.60;;;32.33;;
39898;SDS011;25571;47.876;10.642;2022-12-16T10:51:57;45.78;;;28.48;;
39898;SDS011;25571;47.876;10.642;2022-12-16T10:54:43;39.67;;;26.50;;
39898;SDS011;25571;47.876;10.642;2022-12-16T10:57:37;38.50;;;25.60;;
39898;SDS011;25571;47.876;10.642;2022-12-16T11:00:49;38.50;;;24.53;;
39898;SDS011;25571;47.876;10.642;2022-12-16T11:03:34;39.15;;;24.73;;
39898;SDS011;25571;47.876;10.642;2022-12-16T11:06:26;39.70;;;25.13;;
39898;SDS011;25571;47.876;10.642;2022-12-16T11:15:22;41.55;;;24.90;;
39898;SDS011;25571;47.876;10.642;2022-12-16T11:18:15;40.28;;;26.60;;
39898;SDS011;25571;47.876;10.642;2022-12-16T11:24:13;39.13;;;25.40;;
39898;SDS011;25571;47.876;10.642;2022-12-16T11:27:06;44.13;;;28.33;;
39898;SDS011;25571;47.876;10.642;2022-12-16T11:32:57;51.53;;;34.20;;
39898;SDS011;25571;47.876;10.642;2022-12-16T11:35:43;56.55;;;39.05;;
39898;SDS011;25571;47.876;10.642;2022-12-16T11:38:41;54.42;;;36.70;;
39898;SDS011;25571;47.876;10.642;2022-12-16T11:41:51;50.10;;;32.05;;
39898;SDS011;25571;47.876;10.642;2022-12-16T11:44:50;44.70;;;30.00;;
39898;SDS011;25571;47.876;10.642;2022-12-16T11:47:38;43.22;;;27.73;;
39898;SDS011;25571;47.876;10.642;2022-12-16T11:50:28;44.90;;;28.33;;
39898;SDS011;25571;47.876;10.642;2022-12-16T11:53:29;41.53;;;26.63;;
39898;SDS011;25571;47.876;10.642;2022-12-16T11:56:31;44.03;;;26.30;;
39898;SDS011;25571;47.876;10.642;2022-12-16T12:05:10;59.08;;;30.58;;
39898;SDS011;25571;47.876;10.642;2022-12-16T12:08:01;43.28;;;27.42;;
39898;SDS011;25571;47.876;10.642;2022-12-16T12:11:35;46.88;;;30.58;;
39898;SDS011;25571;47.876;10.642;2022-12-16T12:17:36;91.88;;;45.85;;
39898;SDS011;25571;47.876;10.642;2022-12-16T12:20:45;98.97;;;45.25;;
39898;SDS011;25571;47.876;10.642;2022-12-16T12:27:06;129.10;;;56.55;;
39898;SDS011;25571;47.876;10.642;2022-12-16T12:30:01;85.57;;;44.08;;
39898;SDS011;25571;47.876;10.642;2022-12-16T12:38:56;36.25;;;25.23;;
39898;SDS011;25571;47.876;10.642;2022-12-16T12:51:06;45.58;;;36.92;;
39898;SDS011;25571;47.876;10.642;2022-12-16T12:54:03;39.58;;;28.85;;
39898;SDS011;25571;47.876;10.642;2022-12-16T12:57:01;36.28;;;26.20;;
39898;SDS011;25571;47.876;10.642;2022-12-16T12:59:52;36.47;;;23.95;;
39898;SDS011;25571;47.876;10.642;2022-12-16T13:05:36;34.75;;;23.30;;
39898;SDS011;25571;47.876;10.642;2022-12-16T13:08:56;36.00;;;23.80;;
39898;SDS011;25571;47.876;10.642;2022-12-16T13:11:33;36.63;;;24.38;;
39898;SDS011;25571;47.876;10.642;2022-12-16T13:17:14;37.47;;;25.50;;
39898;SDS011;25571;47.876;10.642;2022-12-16T13:20:03;43.47;;;27.40;;
39898;SDS011;25571;47.876;10.642;2022-12-16T13:26:11;41.38;;;26.88;;
39898;SDS011;25571;47.876;10.642;2022-12-16T13:32:14;43.42;;;28.98;;
39898;SDS011;25571;47.876;10.642;2022-12-16T13:38:38;35.75;;;26.65;;
39898;SDS011;25571;47.876;10.642;2022-12-16T13:41:01;38.97;;;27.07;;
39898;SDS011;25571;47.876;10.642;2022-12-16T13:43:57;36.00;;;24.98;;
39898;SDS011;25571;47.876;10.642;2022-12-16T13:53:06;88.55;;;40.38;;
39898;SDS011;25571;47.876;10.642;2022-12-16T13:55:47;136.18;;;55.58;;
39898;SDS011;25571;47.876;10.642;2022-12-16T13:58:51;112.10;;;47.78;;
39898;SDS011;25571;47.876;10.642;2022-12-16T14:02:00;94.65;;;44.97;;
39898;SDS011;25571;47.876;10.642;2022-12-16T14:04:55;103.20;;;46.17;;
39898;SDS011;25571;47.876;10.642;2022-12-16T14:07:40;129.20;;;52.13;;
39898;SDS011;25571;47.876;10.642;2022-12-16T14:10:28;80.13;;;37.90;;
39898;SDS011;25571;47.876;10.642;2022-12-16T14:17:00;63.78;;;32.58;;
39898;SDS011;25571;47.876;10.642;2022-12-16T14:22:52;29.83;;;20.73;;
39898;SDS011;25571;47.876;10.642;2022-12-16T14:25:41;27.25;;;19.42;;
39898;SDS011;25571;47.876;10.642;2022-12-16T14:28:28;33.53;;;21.05;;
39898;SDS011;25571;47.876;10.642;2022-12-16T14:31:20;30.92;;;20.90;;
39898;SDS011;25571;47.876;10.642;2022-12-16T14:34:26;35.17;;;23.23;;
39898;SDS011;25571;47.876;10.642;2022-12-16T14:37:16;33.92;;;22.92;;
39898;SDS011;25571;47.876;10.642;2022-12-16T14:40:01;32.45;;;20.50;;
39898;SDS011;25571;47.876;10.642;2022-12-16T14:42:48;31.65;;;20.50;;
39898;SDS011;25571;47.876;10.642;2022-12-16T14:45:36;29.48;;;20.67;;
39898;SDS011;25571;47.876;10.642;2022-12-16T14:48:25;30.00;;;20.67;;
39898;SDS011;25571;47.876;10.642;2022-12-16T14:51:22;32.75;;;22.05;;
39898;SDS011;25571;47.876;10.642;2022-12-16T14:57:34;31.08;;;20.92;;
39898;SDS011;25571;47.876;10.642;2022-12-16T15:00:21;32.90;;;21.70;;
39898;SDS011;25571;47.876;10.642;2022-12-16T15:06:05;34.97;;;23.75;;
39898;SDS011;25571;47.876;10.642;2022-12-16T15:08:54;36.47;;;25.05;;
39898;SDS011;25571;47.876;10.642;2022-12-16T15:11:41;40.00;;;25.27;;
39898;SDS011;25571;47.876;10.642;2022-12-16T15:14:28;36.35;;;24.40;;
39898;SDS011;25571;47.876;10.642;2022-12-16T15:20:36;37.10;;;25.13;;
39898;SDS011;25571;47.876;10.642;2022-12-16T15:26:09;34.80;;;22.70;;
39898;SDS011;25571;47.876;10.642;2022-12-16T15:29:31;37.90;;;23.40;;
39898;SDS011;25571;47.876;10.642;2022-12-16T15:35:07;33.40;;;23.17;;
39898;SDS011;25571;47.876;10.642;2022-12-16T15:38:11;35.05;;;22.20;;
39898;SDS011;25571;47.876;10.642;2022-12-16T15:41:01;30.70;;;20.38;;
39898;SDS011;25571;47.876;10.642;2022-12-16T15:43:47;39.10;;;25.75;;
39898;SDS011;25571;47.876;10.642;2022-12-16T15:46:32;35.58;;;23.15;;
39898;SDS011;25571;47.876;10.642;2022-12-16T15:52:21;42.20;;;25.80;;
39898;SDS011;25571;47.876;10.642;2022-12-16T15:55:39;58.75;;;29.38;;
39898;SDS011;25571;47.876;10.642;2022-12-16T15:58:25;61.63;;;29.77;;
39898;SDS011;25571;47.876;10.642;2022-12-16T16:01:14;67.28;;;35.20;;
39898;SDS011;25571;47.876;10.642;2022-12-16T16:04:03;64.90;;;34.58;;
39898;SDS011;25571;47.876;10.642;2022-12-16T16:06:57;57.00;;;32.97;;
39898;SDS011;25571;47.876;10.642;2022-12-16T16:09:42;48.42;;;28.38;;
39898;SDS011;25571;47.876;10.642;2022-12-16T16:12:26;53.13;;;31.23;;
39898;SDS011;25571;47.876;10.642;2022-12-16T16:15:11;67.45;;;35.65;;
39898;SDS011;25571;47.876;10.642;2022-12-16T16:17:57;65.00;;;35.60;;
39898;SDS011;25571;47.876;10.642;2022-12-16T16:20:44;54.97;;;31.07;;
39898;SDS011;25571;47.876;10.642;2022-12-16T16:23:28;44.55;;;26.70;;
39898;SDS011;25571;47.876;10.642;2022-12-16T16:26:16;46.63;;;27.00;;
39898;SDS011;25571;47.876;10.642;2022-12-16T16:29:02;44.25;;;27.02;;
39898;SDS011;25571;47.876;10.642;2022-12-16T16:31:46;46.25;;;28.70;;
39898;SDS011;25571;47.876;10.642;2022-12-16T16:34:30;79.82;;;42.80;;
39898;SDS011;25571;47.876;10.642;2022-12-16T16:37:15;80.45;;;42.67;;
39898;SDS011;25571;47.876;10.642;2022-12-16T16:43:24;49.55;;;31.08;;
39898;SDS011;25571;47.876;10.642;2022-12-16T16:46:18;48.83;;;33.08;;
39898;SDS011;25571;47.876;10.642;2022-12-16T16:49:18;43.50;;;28.60;;
39898;SDS011;25571;47.876;10.642;2022-12-16T16:52:11;45.40;;;28.83;;
39898;SDS011;25571;47.876;10.642;2022-12-16T16:54:56;41.22;;;26.42;;
39898;SDS011;25571;47.876;10.642;2022-12-16T16:57:41;41.15;;;26.52;;
39898;SDS011;25571;47.876;10.642;2022-12-16T17:00:26;40.78;;;26.20;;
39898;SDS011;25571;47.876;10.642;2022-12-16T17:03:10;47.28;;;28.80;;
39898;SDS011;25571;47.876;10.642;2022-12-16T17:05:54;47.08;;;28.98;;
39898;SDS011;25571;47.876;10.642;2022-12-16T17:08:39;42.13;;;25.65;;
39898;SDS011;25571;47.876;10.642;2022-12-16T17:11:23;43.97;;;27.65;;
39898;SDS011;25571;47.876;10.642;2022-12-16T17:14:11;42.60;;;26.67;;
39898;SDS011;25571;47.876;10.642;2022-12-16T17:16:57;42.13;;;26.67;;
39898;SDS011;25571;47.876;10.642;2022-12-16T17:19:41;44.03;;;27.05;;
39898;SDS011;25571;47.876;10.642;2022-12-16T17:22:26;44.55;;;26.73;;
39898;SDS011;25571;47.876;10.642;2022-12-16T17:25:11;43.35;;;26.50;;
39898;SDS011;25571;47.876;10.642;2022-12-16T17:27:56;46.55;;;26.67;;
39898;SDS011;25571;47.876;10.642;2022-12-16T17:30:40;41.38;;;25.23;;
39898;SDS011;25571;47.876;10.642;2022-12-16T17:33:24;46.33;;;26.85;;
39898;SDS011;25571;47.876;10.642;2022-12-16T17:36:12;38.88;;;25.30;;
39898;SDS011;25571;47.876;10.642;2022-12-16T17:38:57;44.17;;;27.92;;
39898;SDS011;25571;47.876;10.642;2022-12-16T17:41:42;60.20;;;34.72;;
39898;SDS011;25571;47.876;10.642;2022-12-16T17:44:26;51.33;;;30.27;;
39898;SDS011;25571;47.876;10.642;2022-12-16T17:47:11;55.92;;;32.92;;
39898;SDS011;25571;47.876;10.642;2022-12-16T17:49:55;67.13;;;35.67;;
39898;SDS011;25571;47.876;10.642;2022-12-16T17:52:39;61.08;;;34.35;;
39898;SDS011;25571;47.876;10.642;2022-12-16T17:55:25;53.70;;;30.52;;
39898;SDS011;25571;47.876;10.642;2022-12-16T17:58:09;65.32;;;31.17;;
39898;SDS011;25571;47.876;10.642;2022-12-16T18:00:58;61.50;;;31.48;;
39898;SDS011;25571;47.876;10.642;2022-12-16T18:03:44;55.42;;;28.23;;
39898;SDS011;25571;47.876;10.642;2022-12-16T18:06:28;43.72;;;25.67;;
39898;SDS011;25571;47.876;10.642;2022-12-16T18:09:12;44.28;;;26.58;;
39898;SDS011;25571;47.876;10.642;2022-12-16T18:11:56;44.97;;;26.42;;